createdAt,value
2022-11-10T00:00:13.000Z,0.0
2022-11-10T00:00:28.000Z,0.0
2022-11-10T00:00:43.000Z,0.0
2022-11-10T00:00:58.000Z,0.0
2022-11-10T00:01:13.000Z,0.0
2022-11-10T00:01:28.000Z,0.0
2022-11-10T00:01:43.000Z,0.0
2022-11-10T00:01:58.000Z,0.0
2022-11-10T00:02:14.000Z,0.0
2022-11-10T00:02:29.000Z,0.0
2022-11-10T00:02:44.000Z,0.0
2022-11-10T00:02:59.000Z,0.0
2022-11-10T00:03:14.000Z,0.0
2022-11-10T00:03:29.000Z,0.0
2022-11-10T00:03:44.000Z,0.0
2022-11-10T00:03:59.000Z,0.0
2022-11-10T00:04:14.000Z,0.0
2022-11-10T00:04:28.000Z,0.0
2022-11-10T00:04:43.000Z,0.0
2022-11-10T00:04:58.000Z,0.0
2022-11-10T00:05:13.000Z,0.0
2022-11-10T00:05:28.000Z,0.0
2022-11-10T00:05:43.000Z,0.0
2022-11-10T00:05:58.000Z,0.0
2022-11-10T00:06:13.000Z,0.0
2022-11-10T00:06:28.000Z,0.0
2022-11-10T00:06:43.000Z,0.0
2022-11-10T00:06:58.000Z,0.0
2022-11-10T00:07:13.000Z,0.0
2022-11-10T00:07:28.000Z,0.0
2022-11-10T00:07:43.000Z,0.0
2022-11-10T00:07:59.000Z,0.0
2022-11-10T00:08:14.000Z,0.0
2022-11-10T00:08:29.000Z,0.0
2022-11-10T00:08:44.000Z,0.0
2022-11-10T00:08:59.000Z,0.0
2022-11-10T00:09:14.000Z,0.0
2022-11-10T00:09:29.000Z,0.0
2022-11-10T00:09:44.000Z,0.0
2022-11-10T00:09:58.000Z,0.0
2022-11-10T00:10:13.000Z,0.0
2022-11-10T00:10:28.000Z,0.0
2022-11-10T00:10:43.000Z,0.0
2022-11-10T00:10:58.000Z,0.0
2022-11-10T00:11:13.000Z,0.0
2022-11-10T00:11:28.000Z,0.0
2022-11-10T00:11:43.000Z,0.0
2022-11-10T00:11:58.000Z,0.0
2022-11-10T00:12:13.000Z,0.0
2022-11-10T00:12:28.000Z,0.0
2022-11-10T00:12:43.000Z,0.0
2022-11-10T00:12:58.000Z,0.0
2022-11-10T00:13:13.000Z,0.0
2022-11-10T00:13:28.000Z,0.0
2022-11-10T00:13:44.000Z,0.0
2022-11-10T00:13:59.000Z,0.0
2022-11-10T00:14:14.000Z,0.0
2022-11-10T00:14:29.000Z,0.0
2022-11-10T00:14:44.000Z,0.0
2022-11-10T00:14:59.000Z,0.0
2022-11-10T00:15:14.000Z,0.0
2022-11-10T00:15:29.000Z,0.0
2022-11-10T00:15:43.000Z,0.0
2022-11-10T00:15:58.000Z,0.0
2022-11-10T00:16:13.000Z,0.0
2022-11-10T00:16:28.000Z,0.0
2022-11-10T00:16:43.000Z,0.0
2022-11-10T00:16:58.000Z,0.0
2022-11-10T00:17:13.000Z,0.0
2022-11-10T00:17:28.000Z,0.0
2022-11-10T00:17:43.000Z,0.0
2022-11-10T00:17:58.000Z,0.0
2022-11-10T00:18:13.000Z,0.0
2022-11-10T00:18:28.000Z,0.0
2022-11-10T00:18:43.000Z,0.0
2022-11-10T00:18:58.000Z,0.0
2022-11-10T00:19:14.000Z,0.0
2022-11-10T00:19:29.000Z,0.0
2022-11-10T00:19:44.000Z,0.0
2022-11-10T00:19:59.000Z,0.0
2022-11-10T00:20:14.000Z,0.0
2022-11-10T00:20:29.000Z,0.0
2022-11-10T00:20:44.000Z,0.0
2022-11-10T00:20:59.000Z,0.0
2022-11-10T00:21:14.000Z,0.0
2022-11-10T00:21:28.000Z,0.0
2022-11-10T00:21:43.000Z,0.0
2022-11-10T00:21:58.000Z,0.0
2022-11-10T00:22:13.000Z,0.0
2022-11-10T00:22:28.000Z,0.0
2022-11-10T00:22:43.000Z,0.0
2022-11-10T00:22:58.000Z,0.0
2022-11-10T00:23:13.000Z,0.0
2022-11-10T00:23:28.000Z,0.0
2022-11-10T00:23:43.000Z,0.0
2022-11-10T00:23:58.000Z,0.0
2022-11-10T00:24:13.000Z,0.0
2022-11-10T00:24:28.000Z,0.0
2022-11-10T00:24:43.000Z,0.0
2022-11-10T00:24:58.000Z,0.0
2022-11-10T00:25:14.000Z,0.0
2022-11-10T00:25:29.000Z,0.0
2022-11-10T00:25:44.000Z,0.0
2022-11-10T00:25:59.000Z,0.0
2022-11-10T00:26:14.000Z,0.0
2022-11-10T00:26:29.000Z,0.0
2022-11-10T00:26:44.000Z,0.0
2022-11-10T00:26:59.000Z,0.0
2022-11-10T00:27:13.000Z,0.0
2022-11-10T00:27:28.000Z,0.0
2022-11-10T00:27:43.000Z,0.0
2022-11-10T00:27:58.000Z,0.0
2022-11-10T00:28:13.000Z,0.0
2022-11-10T00:28:28.000Z,0.0
2022-11-10T00:28:43.000Z,0.0
2022-11-10T00:28:58.000Z,0.0
2022-11-10T00:29:13.000Z,0.0
2022-11-10T00:29:28.000Z,0.0
2022-11-10T00:29:43.000Z,0.0
2022-11-10T00:29:58.000Z,0.0
2022-11-10T00:30:13.000Z,0.0
2022-11-10T00:30:28.000Z,0.0
2022-11-10T00:30:44.000Z,0.0
2022-11-10T00:30:59.000Z,0.0
2022-11-10T00:31:14.000Z,0.0
2022-11-10T00:31:29.000Z,0.0
2022-11-10T00:31:44.000Z,0.0
2022-11-10T00:31:59.000Z,0.0
2022-11-10T00:32:14.000Z,0.0
2022-11-10T00:32:29.000Z,0.0
2022-11-10T00:32:44.000Z,0.0
2022-11-10T00:32:58.000Z,0.0
2022-11-10T00:33:13.000Z,0.0
2022-11-10T00:33:28.000Z,0.0
2022-11-10T00:33:43.000Z,0.0
2022-11-10T00:33:58.000Z,0.0
2022-11-10T00:34:13.000Z,0.0
2022-11-10T00:34:28.000Z,0.0
2022-11-10T00:34:43.000Z,0.0
2022-11-10T00:34:58.000Z,0.0
2022-11-10T00:35:13.000Z,0.0
2022-11-10T00:35:28.000Z,0.0
2022-11-10T00:35:43.000Z,0.0
2022-11-10T00:35:58.000Z,0.0
2022-11-10T00:36:13.000Z,0.0
2022-11-10T00:36:29.000Z,0.0
2022-11-10T00:36:44.000Z,0.0
2022-11-10T00:36:59.000Z,0.0
2022-11-10T00:37:14.000Z,0.0
2022-11-10T00:37:29.000Z,0.0
2022-11-10T00:37:44.000Z,0.0
2022-11-10T00:37:59.000Z,0.0
2022-11-10T00:38:14.000Z,0.0
2022-11-10T00:38:28.000Z,0.0
2022-11-10T00:38:43.000Z,0.0
2022-11-10T00:38:58.000Z,0.0
2022-11-10T00:39:13.000Z,0.0
2022-11-10T00:39:28.000Z,0.0
2022-11-10T00:39:43.000Z,0.0
2022-11-10T00:39:58.000Z,0.0
2022-11-10T00:40:13.000Z,0.0
2022-11-10T00:40:28.000Z,0.0
2022-11-10T00:40:43.000Z,0.0
2022-11-10T00:40:58.000Z,0.0
2022-11-10T00:41:13.000Z,0.0
2022-11-10T00:41:28.000Z,0.0
2022-11-10T00:41:43.000Z,0.0
2022-11-10T00:41:58.000Z,0.0
2022-11-10T00:42:14.000Z,0.0
2022-11-10T00:42:29.000Z,0.0
2022-11-10T00:42:44.000Z,0.0
2022-11-10T00:42:59.000Z,0.0
2022-11-10T00:43:14.000Z,0.0
2022-11-10T00:43:29.000Z,0.0
2022-11-10T00:43:44.000Z,0.0
2022-11-10T00:43:59.000Z,0.0
2022-11-10T00:44:13.000Z,0.0
2022-11-10T00:44:28.000Z,0.0
2022-11-10T00:44:43.000Z,0.0
2022-11-10T00:44:58.000Z,0.0
2022-11-10T00:45:13.000Z,0.0
2022-11-10T00:45:28.000Z,0.0
2022-11-10T00:45:43.000Z,0.0
2022-11-10T00:45:58.000Z,0.0
2022-11-10T00:46:13.000Z,0.0
2022-11-10T00:46:28.000Z,0.0
2022-11-10T00:46:43.000Z,0.0
2022-11-10T00:46:58.000Z,0.0
2022-11-10T00:47:13.000Z,0.0
2022-11-10T00:47:28.000Z,0.0
2022-11-10T00:47:44.000Z,0.0
2022-11-10T00:47:59.000Z,0.0
2022-11-10T00:48:14.000Z,0.0
2022-11-10T00:48:29.000Z,0.0
2022-11-10T00:48:44.000Z,0.0
2022-11-10T00:48:59.000Z,0.0
2022-11-10T00:49:14.000Z,0.0
2022-11-10T00:49:29.000Z,0.0
2022-11-10T00:49:44.000Z,0.0
2022-11-10T00:49:58.000Z,0.0
2022-11-10T00:50:13.000Z,0.0
2022-11-10T00:50:28.000Z,0.0
2022-11-10T00:50:43.000Z,0.0
2022-11-10T00:50:58.000Z,0.0
2022-11-10T00:51:13.000Z,0.0
2022-11-10T00:51:28.000Z,0.0
2022-11-10T00:51:43.000Z,0.0
2022-11-10T00:51:58.000Z,0.0
2022-11-10T00:52:13.000Z,0.0
2022-11-10T00:52:28.000Z,0.0
2022-11-10T00:52:43.000Z,0.0
2022-11-10T00:52:58.000Z,0.0
2022-11-10T00:53:13.000Z,0.0
2022-11-10T00:53:29.000Z,0.0
2022-11-10T00:53:44.000Z,0.0
2022-11-10T00:53:59.000Z,0.0
2022-11-10T00:54:14.000Z,0.0
2022-11-10T00:54:29.000Z,0.0
2022-11-10T00:54:44.000Z,0.0
2022-11-10T00:54:59.000Z,0.0
2022-11-10T00:55:14.000Z,0.0
2022-11-10T00:55:29.000Z,0.0
2022-11-10T00:55:43.000Z,0.0
2022-11-10T00:55:58.000Z,0.0
2022-11-10T00:56:13.000Z,0.0
2022-11-10T00:56:28.000Z,0.0
2022-11-10T00:56:43.000Z,0.0
2022-11-10T00:56:58.000Z,0.0
2022-11-10T00:57:13.000Z,0.0
2022-11-10T00:57:28.000Z,0.0
2022-11-10T00:57:43.000Z,0.0
2022-11-10T00:57:58.000Z,0.0
2022-11-10T00:58:13.000Z,0.0
2022-11-10T00:58:28.000Z,0.0
2022-11-10T00:58:43.000Z,0.0
2022-11-10T00:58:58.000Z,0.0
2022-11-10T00:59:14.000Z,0.0
2022-11-10T00:59:29.000Z,0.0
2022-11-10T00:59:44.000Z,0.0
2022-11-10T00:59:59.000Z,0.0
2022-11-10T01:00:14.000Z,0.0
2022-11-10T01:00:29.000Z,0.0
2022-11-10T01:00:44.000Z,0.0
2022-11-10T01:00:59.000Z,0.0
2022-11-10T01:01:14.000Z,0.0
2022-11-10T01:01:28.000Z,0.0
2022-11-10T01:01:43.000Z,0.0
2022-11-10T01:01:58.000Z,0.0
2022-11-10T01:02:13.000Z,0.0
2022-11-10T01:02:28.000Z,0.0
2022-11-10T01:02:43.000Z,0.0
2022-11-10T01:02:58.000Z,0.0
2022-11-10T01:03:13.000Z,0.0
2022-11-10T01:03:28.000Z,0.0
2022-11-10T01:03:43.000Z,0.0
2022-11-10T01:03:58.000Z,0.0
2022-11-10T01:04:13.000Z,0.0
2022-11-10T01:04:28.000Z,0.0
2022-11-10T01:04:43.000Z,0.0
2022-11-10T01:04:59.000Z,0.0
2022-11-10T01:05:14.000Z,0.0
2022-11-10T01:05:29.000Z,0.0
2022-11-10T01:05:44.000Z,0.0
2022-11-10T01:05:59.000Z,0.0
2022-11-10T01:06:14.000Z,0.0
2022-11-10T01:06:29.000Z,0.0
2022-11-10T01:06:44.000Z,0.0
2022-11-10T01:06:59.000Z,0.0
2022-11-10T01:07:13.000Z,0.0
2022-11-10T01:07:28.000Z,0.0
2022-11-10T01:07:43.000Z,0.0
2022-11-10T01:07:58.000Z,0.0
2022-11-10T01:08:13.000Z,0.0
2022-11-10T01:08:28.000Z,0.0
2022-11-10T01:08:43.000Z,0.0
2022-11-10T01:08:58.000Z,0.0
2022-11-10T01:09:13.000Z,0.0
2022-11-10T01:09:28.000Z,0.0
2022-11-10T01:09:43.000Z,0.0
2022-11-10T01:09:58.000Z,0.0
2022-11-10T01:10:13.000Z,0.0
2022-11-10T01:10:28.000Z,0.0
2022-11-10T01:10:43.000Z,0.0
2022-11-10T01:10:59.000Z,0.0
2022-11-10T01:11:14.000Z,0.0
2022-11-10T01:11:29.000Z,0.0
2022-11-10T01:11:44.000Z,0.0
2022-11-10T01:11:59.000Z,0.0
2022-11-10T01:12:14.000Z,0.0
2022-11-10T01:12:29.000Z,0.0
2022-11-10T01:12:44.000Z,0.0
2022-11-10T01:12:59.000Z,0.0
2022-11-10T01:13:13.000Z,0.0
2022-11-10T01:13:28.000Z,0.0
2022-11-10T01:13:43.000Z,0.0
2022-11-10T01:13:58.000Z,0.0
2022-11-10T01:14:13.000Z,0.0
2022-11-10T01:14:28.000Z,0.0
2022-11-10T01:14:43.000Z,0.0
2022-11-10T01:14:58.000Z,0.0
2022-11-10T01:15:13.000Z,0.0
2022-11-10T01:15:28.000Z,0.0
2022-11-10T01:15:43.000Z,0.0
2022-11-10T01:15:58.000Z,0.0
2022-11-10T01:16:13.000Z,0.0
2022-11-10T01:16:28.000Z,0.0
2022-11-10T01:16:43.000Z,0.0
2022-11-10T01:16:59.000Z,0.0
2022-11-10T01:17:14.000Z,0.0
2022-11-10T01:17:29.000Z,0.0
2022-11-10T01:17:44.000Z,0.0
2022-11-10T01:17:59.000Z,0.0
2022-11-10T01:18:14.000Z,0.0
2022-11-10T01:18:29.000Z,0.0
2022-11-10T01:18:44.000Z,0.0
2022-11-10T01:18:59.000Z,0.0
2022-11-10T01:19:14.000Z,0.0
2022-11-10T01:19:28.000Z,0.0
2022-11-10T01:19:43.000Z,0.0
2022-11-10T01:19:58.000Z,0.0
2022-11-10T01:20:13.000Z,0.0
2022-11-10T01:20:28.000Z,0.0
2022-11-10T01:20:43.000Z,0.0
2022-11-10T01:20:58.000Z,0.0
2022-11-10T01:21:13.000Z,0.0
2022-11-10T01:21:28.000Z,0.0
2022-11-10T01:21:43.000Z,0.0
2022-11-10T01:21:58.000Z,0.0
2022-11-10T01:22:13.000Z,0.0
2022-11-10T01:22:28.000Z,0.0
2022-11-10T01:22:43.000Z,0.0
2022-11-10T01:22:59.000Z,0.0
2022-11-10T01:23:14.000Z,0.0
2022-11-10T01:23:29.000Z,0.0
2022-11-10T01:23:44.000Z,0.0
2022-11-10T01:23:59.000Z,0.0
2022-11-10T01:24:14.000Z,0.0
2022-11-10T01:24:29.000Z,0.0
2022-11-10T01:24:44.000Z,0.0
2022-11-10T01:24:59.000Z,0.0
2022-11-10T01:25:14.000Z,0.0
2022-11-10T01:25:29.000Z,0.0
2022-11-10T01:25:44.000Z,0.0
2022-11-10T01:25:58.000Z,0.0
2022-11-10T01:26:13.000Z,0.0
2022-11-10T01:26:28.000Z,0.0
2022-11-10T01:26:43.000Z,0.0
2022-11-10T01:26:58.000Z,0.0
2022-11-10T01:27:13.000Z,0.0
2022-11-10T01:27:28.000Z,0.0
2022-11-10T01:27:43.000Z,0.0
2022-11-10T01:27:58.000Z,0.0
2022-11-10T01:28:13.000Z,0.0
2022-11-10T01:28:28.000Z,0.0
2022-11-10T01:28:43.000Z,0.0
2022-11-10T01:28:58.000Z,0.0
2022-11-10T01:29:13.000Z,0.0
2022-11-10T01:29:28.000Z,0.0
2022-11-10T01:29:43.000Z,0.0
2022-11-10T01:29:58.000Z,0.0
2022-11-10T01:30:13.000Z,0.0
2022-11-10T01:30:28.000Z,0.0
2022-11-10T01:30:43.000Z,0.0
2022-11-10T01:30:58.000Z,0.0
2022-11-10T01:31:13.000Z,0.0
2022-11-10T01:31:29.000Z,0.0
2022-11-10T01:31:44.000Z,0.0
2022-11-10T01:31:59.000Z,0.0
2022-11-10T01:32:14.000Z,0.0
2022-11-10T01:32:29.000Z,0.0
2022-11-10T01:32:44.000Z,0.0
2022-11-10T01:32:59.000Z,0.0
2022-11-10T01:33:14.000Z,0.0
2022-11-10T01:33:29.000Z,0.0
2022-11-10T01:33:44.000Z,0.0
2022-11-10T01:33:59.000Z,0.0
2022-11-10T01:34:14.000Z,0.0
2022-11-10T01:34:29.000Z,0.0
2022-11-10T01:34:43.000Z,0.0
2022-11-10T01:34:58.000Z,0.0
2022-11-10T01:35:13.000Z,0.0
2022-11-10T01:35:28.000Z,0.0
2022-11-10T01:35:43.000Z,0.0
2022-11-10T01:35:58.000Z,0.0
2022-11-10T01:36:13.000Z,0.0
2022-11-10T01:36:28.000Z,0.0
2022-11-10T01:36:43.000Z,0.0
2022-11-10T01:36:58.000Z,0.0
2022-11-10T01:37:13.000Z,0.0
2022-11-10T01:37:28.000Z,0.0
2022-11-10T01:37:43.000Z,0.0
2022-11-10T01:37:58.000Z,0.0
2022-11-10T01:38:13.000Z,0.0
2022-11-10T01:38:28.000Z,0.0
2022-11-10T01:38:43.000Z,0.0
2022-11-10T01:38:59.000Z,0.0
2022-11-10T01:39:14.000Z,0.0
2022-11-10T01:39:29.000Z,0.0
2022-11-10T01:39:44.000Z,0.0
2022-11-10T01:39:59.000Z,0.0
2022-11-10T01:40:14.000Z,0.0
2022-11-10T01:40:29.000Z,0.0
2022-11-10T01:40:44.000Z,0.0
2022-11-10T01:40:59.000Z,0.0
2022-11-10T01:41:13.000Z,0.0
2022-11-10T01:41:28.000Z,0.0
2022-11-10T01:41:43.000Z,0.0
2022-11-10T01:41:58.000Z,0.0
2022-11-10T01:42:13.000Z,0.0
2022-11-10T01:42:28.000Z,0.0
2022-11-10T01:42:43.000Z,0.0
2022-11-10T01:42:58.000Z,0.0
2022-11-10T01:43:13.000Z,0.0
2022-11-10T01:43:28.000Z,0.0
2022-11-10T01:43:43.000Z,0.0
2022-11-10T01:43:58.000Z,0.0
2022-11-10T01:44:13.000Z,0.0
2022-11-10T01:44:28.000Z,0.0
2022-11-10T01:44:43.000Z,0.0
2022-11-10T01:44:58.000Z,0.0
2022-11-10T01:45:14.000Z,0.0
2022-11-10T01:45:29.000Z,0.0
2022-11-10T01:45:44.000Z,0.0
2022-11-10T01:45:59.000Z,0.0
2022-11-10T01:46:14.000Z,0.0
2022-11-10T01:46:29.000Z,0.0
2022-11-10T01:46:44.000Z,0.0
2022-11-10T01:46:59.000Z,0.0
2022-11-10T01:47:14.000Z,0.0
2022-11-10T01:47:29.000Z,0.0
2022-11-10T01:47:43.000Z,0.0
2022-11-10T01:47:58.000Z,0.0
2022-11-10T01:48:13.000Z,0.0
2022-11-10T01:48:28.000Z,0.0
2022-11-10T01:48:43.000Z,0.0
2022-11-10T01:48:58.000Z,0.0
2022-11-10T01:49:13.000Z,0.0
2022-11-10T01:49:28.000Z,0.0
2022-11-10T01:49:43.000Z,0.0
2022-11-10T01:49:58.000Z,0.0
2022-11-10T01:50:13.000Z,0.0
2022-11-10T01:50:28.000Z,0.0
2022-11-10T01:50:43.000Z,0.0
2022-11-10T01:50:58.000Z,0.0
2022-11-10T01:51:13.000Z,0.0
2022-11-10T01:51:28.000Z,0.0
2022-11-10T01:51:43.000Z,0.0
2022-11-10T01:51:59.000Z,0.0
2022-11-10T01:52:14.000Z,0.0
2022-11-10T01:52:29.000Z,0.0
2022-11-10T01:52:44.000Z,0.0
2022-11-10T01:52:59.000Z,0.0
2022-11-10T01:53:14.000Z,0.0
2022-11-10T01:53:29.000Z,0.0
2022-11-10T01:53:44.000Z,0.0
2022-11-10T01:53:59.000Z,0.0
2022-11-10T01:54:14.000Z,0.0
2022-11-10T01:54:29.000Z,0.0
2022-11-10T01:54:43.000Z,0.0
2022-11-10T01:54:58.000Z,0.0
2022-11-10T01:55:13.000Z,0.0
2022-11-10T01:55:28.000Z,0.0
2022-11-10T01:55:43.000Z,0.0
2022-11-10T01:55:58.000Z,0.0
2022-11-10T01:56:13.000Z,0.0
2022-11-10T01:56:28.000Z,0.0
2022-11-10T01:56:43.000Z,0.0
2022-11-10T01:56:58.000Z,0.0
2022-11-10T01:57:13.000Z,0.0
2022-11-10T01:57:28.000Z,0.10000000149011612
2022-11-10T01:57:43.000Z,0.10000000149011612
2022-11-10T01:57:58.000Z,0.10000000149011612
2022-11-10T01:58:14.000Z,0.10000000149011612
2022-11-10T01:58:29.000Z,0.10000000149011612
2022-11-10T01:58:44.000Z,0.10000000149011612
2022-11-10T01:58:59.000Z,0.10000000149011612
2022-11-10T01:59:14.000Z,0.10000000149011612
2022-11-10T01:59:29.000Z,0.0
2022-11-10T01:59:44.000Z,0.0
2022-11-10T01:59:59.000Z,0.10000000149011612
2022-11-10T02:00:13.000Z,0.0
2022-11-10T02:00:28.000Z,0.10000000149011612
2022-11-10T02:00:43.000Z,0.10000000149011612
2022-11-10T02:00:58.000Z,0.0
2022-11-10T02:01:13.000Z,0.10000000149011612
2022-11-10T02:01:28.000Z,0.10000000149011612
2022-11-10T02:01:43.000Z,0.10000000149011612
2022-11-10T02:01:58.000Z,0.0
2022-11-10T02:02:13.000Z,0.10000000149011612
2022-11-10T02:02:28.000Z,0.0
2022-11-10T02:02:43.000Z,0.0
2022-11-10T02:02:58.000Z,0.0
2022-11-10T02:03:13.000Z,0.0
2022-11-10T02:03:28.000Z,0.10000000149011612
2022-11-10T02:03:44.000Z,0.0
2022-11-10T02:03:59.000Z,0.0
2022-11-10T02:04:14.000Z,0.0
2022-11-10T02:04:29.000Z,0.0
2022-11-10T02:04:44.000Z,0.10000000149011612
2022-11-10T02:04:59.000Z,0.0
2022-11-10T02:05:14.000Z,0.0
2022-11-10T02:05:29.000Z,0.0
2022-11-10T02:05:44.000Z,0.0
2022-11-10T02:05:58.000Z,0.0
2022-11-10T02:06:13.000Z,0.0
2022-11-10T02:06:28.000Z,0.0
2022-11-10T02:06:43.000Z,0.0
2022-11-10T02:06:58.000Z,0.0
2022-11-10T02:07:13.000Z,0.0
2022-11-10T02:07:28.000Z,0.0
2022-11-10T02:07:43.000Z,0.0
2022-11-10T02:07:58.000Z,0.0
2022-11-10T02:08:13.000Z,0.0
2022-11-10T02:08:28.000Z,0.0
2022-11-10T02:08:43.000Z,0.0
2022-11-10T02:08:58.000Z,0.0
2022-11-10T02:09:13.000Z,0.0
2022-11-10T02:09:28.000Z,0.10000000149011612
2022-11-10T02:09:44.000Z,0.10000000149011612
2022-11-10T02:09:59.000Z,0.10000000149011612
2022-11-10T02:10:14.000Z,0.10000000149011612
2022-11-10T02:10:29.000Z,0.10000000149011612
2022-11-10T02:10:44.000Z,0.10000000149011612
2022-11-10T02:10:59.000Z,0.10000000149011612
2022-11-10T02:11:14.000Z,0.10000000149011612
2022-11-10T02:11:29.000Z,0.30000001192092896
2022-11-10T02:11:44.000Z,0.30000001192092896
2022-11-10T02:11:59.000Z,0.10000000149011612
2022-11-10T02:12:13.000Z,0.30000001192092896
2022-11-10T02:12:28.000Z,0.30000001192092896
2022-11-10T02:12:43.000Z,0.30000001192092896
2022-11-10T02:12:58.000Z,0.30000001192092896
2022-11-10T02:13:13.000Z,0.30000001192092896
2022-11-10T02:13:28.000Z,0.30000001192092896
2022-11-10T02:13:43.000Z,0.30000001192092896
2022-11-10T02:13:58.000Z,0.30000001192092896
2022-11-10T02:14:13.000Z,0.30000001192092896
2022-11-10T02:14:28.000Z,0.30000001192092896
2022-11-10T02:14:43.000Z,0.30000001192092896
2022-11-10T02:14:58.000Z,0.30000001192092896
2022-11-10T02:15:13.000Z,0.30000001192092896
2022-11-10T02:15:28.000Z,0.30000001192092896
2022-11-10T02:15:43.000Z,0.30000001192092896
2022-11-10T02:15:59.000Z,0.30000001192092896
2022-11-10T02:16:14.000Z,0.30000001192092896
2022-11-10T02:16:29.000Z,0.30000001192092896
2022-11-10T02:16:44.000Z,0.30000001192092896
2022-11-10T02:16:59.000Z,0.30000001192092896
2022-11-10T02:17:14.000Z,0.30000001192092896
2022-11-10T02:17:29.000Z,0.30000001192092896
2022-11-10T02:17:44.000Z,0.30000001192092896
2022-11-10T02:17:59.000Z,0.5
2022-11-10T02:18:14.000Z,0.5
2022-11-10T02:18:28.000Z,0.5
2022-11-10T02:18:43.000Z,0.5
2022-11-10T02:18:58.000Z,0.5
2022-11-10T02:19:13.000Z,0.5
2022-11-10T02:19:28.000Z,0.5
2022-11-10T02:19:43.000Z,0.5
2022-11-10T02:19:58.000Z,0.5
2022-11-10T02:20:13.000Z,0.5
2022-11-10T02:20:28.000Z,0.5
2022-11-10T02:20:43.000Z,0.5
2022-11-10T02:20:58.000Z,0.5
2022-11-10T02:21:13.000Z,0.6000000238418579
2022-11-10T02:21:28.000Z,0.5
2022-11-10T02:21:43.000Z,0.6000000238418579
2022-11-10T02:21:58.000Z,0.5
2022-11-10T02:22:13.000Z,0.6000000238418579
2022-11-10T02:22:28.000Z,0.6000000238418579
2022-11-10T02:22:43.000Z,0.6000000238418579
2022-11-10T02:22:59.000Z,0.6000000238418579
2022-11-10T02:23:14.000Z,0.6000000238418579
2022-11-10T02:23:29.000Z,0.6000000238418579
2022-11-10T02:23:44.000Z,0.6000000238418579
2022-11-10T02:23:59.000Z,0.800000011920929
2022-11-10T02:24:14.000Z,0.800000011920929
2022-11-10T02:24:29.000Z,0.800000011920929
2022-11-10T02:24:44.000Z,0.800000011920929
2022-11-10T02:24:59.000Z,0.800000011920929
2022-11-10T02:25:14.000Z,0.800000011920929
2022-11-10T02:25:29.000Z,0.800000011920929
2022-11-10T02:25:44.000Z,0.800000011920929
2022-11-10T02:25:58.000Z,1.0
2022-11-10T02:26:13.000Z,0.800000011920929
2022-11-10T02:26:28.000Z,0.800000011920929
2022-11-10T02:26:43.000Z,1.0
2022-11-10T02:26:58.000Z,1.0
2022-11-10T02:27:13.000Z,1.0
2022-11-10T02:27:28.000Z,1.0
2022-11-10T02:27:43.000Z,1.100000023841858
2022-11-10T02:27:58.000Z,1.100000023841858
2022-11-10T02:28:13.000Z,1.100000023841858
2022-11-10T02:28:28.000Z,1.100000023841858
2022-11-10T02:28:43.000Z,1.100000023841858
2022-11-10T02:28:58.000Z,1.2999999523162842
2022-11-10T02:29:13.000Z,1.2999999523162842
2022-11-10T02:29:28.000Z,1.2999999523162842
2022-11-10T02:29:43.000Z,1.2999999523162842
2022-11-10T02:29:58.000Z,1.2999999523162842
2022-11-10T02:30:13.000Z,1.2999999523162842
2022-11-10T02:30:28.000Z,1.2999999523162842
2022-11-10T02:30:43.000Z,1.2999999523162842
2022-11-10T02:30:59.000Z,1.2999999523162842
2022-11-10T02:31:14.000Z,1.2999999523162842
2022-11-10T02:31:29.000Z,1.2999999523162842
2022-11-10T02:32:00.000Z,1.2999999523162842
2022-11-10T02:32:14.000Z,1.2999999523162842
2022-11-10T02:32:29.000Z,1.2999999523162842
2022-11-10T02:32:44.000Z,1.2999999523162842
2022-11-10T02:32:59.000Z,1.2999999523162842
2022-11-10T02:33:14.000Z,1.2999999523162842
2022-11-10T02:33:29.000Z,1.2999999523162842
2022-11-10T02:33:44.000Z,1.2999999523162842
2022-11-10T02:33:59.000Z,1.2999999523162842
2022-11-10T02:34:14.000Z,1.5
2022-11-10T02:34:28.000Z,1.5
2022-11-10T02:34:43.000Z,1.5
2022-11-10T02:34:58.000Z,1.5
2022-11-10T02:35:13.000Z,1.2999999523162842
2022-11-10T02:35:28.000Z,1.5
2022-11-10T02:35:43.000Z,1.2999999523162842
2022-11-10T02:35:58.000Z,1.5
2022-11-10T02:36:13.000Z,1.5
2022-11-10T02:36:28.000Z,1.5
2022-11-10T02:36:43.000Z,1.5
2022-11-10T02:36:58.000Z,1.5
2022-11-10T02:37:13.000Z,1.5
2022-11-10T02:37:28.000Z,1.5
2022-11-10T02:37:43.000Z,1.600000023841858
2022-11-10T02:37:58.000Z,1.600000023841858
2022-11-10T02:38:13.000Z,1.600000023841858
2022-11-10T02:38:28.000Z,1.600000023841858
2022-11-10T02:38:43.000Z,1.600000023841858
2022-11-10T02:38:58.000Z,1.7999999523162842
2022-11-10T02:39:13.000Z,1.7999999523162842
2022-11-10T02:39:28.000Z,1.7999999523162842
2022-11-10T02:39:43.000Z,1.7999999523162842
2022-11-10T02:39:58.000Z,1.7999999523162842
2022-11-10T02:40:13.000Z,1.7999999523162842
2022-11-10T02:40:28.000Z,1.7999999523162842
2022-11-10T02:40:43.000Z,1.7999999523162842
2022-11-10T02:40:58.000Z,1.7999999523162842
2022-11-10T02:41:14.000Z,1.7999999523162842
2022-11-10T02:41:29.000Z,2.0
2022-11-10T02:41:44.000Z,2.0
2022-11-10T02:41:59.000Z,2.0
2022-11-10T02:42:14.000Z,2.200000047683716
2022-11-10T02:42:29.000Z,2.200000047683716
2022-11-10T02:42:44.000Z,2.299999952316284
2022-11-10T02:42:59.000Z,2.299999952316284
2022-11-10T02:43:14.000Z,2.5
2022-11-10T02:43:29.000Z,2.5
2022-11-10T02:43:44.000Z,2.700000047683716
2022-11-10T02:43:59.000Z,2.700000047683716
2022-11-10T02:44:14.000Z,2.700000047683716
2022-11-10T02:44:29.000Z,2.799999952316284
2022-11-10T02:44:44.000Z,2.799999952316284
2022-11-10T02:44:59.000Z,3.0
2022-11-10T02:45:14.000Z,3.0
2022-11-10T02:45:28.000Z,3.0
2022-11-10T02:45:43.000Z,3.0
2022-11-10T02:45:58.000Z,3.0
2022-11-10T02:46:13.000Z,3.0
2022-11-10T02:46:28.000Z,3.200000047683716
2022-11-10T02:46:43.000Z,3.200000047683716
2022-11-10T02:46:58.000Z,3.200000047683716
2022-11-10T02:47:13.000Z,3.200000047683716
2022-11-10T02:47:28.000Z,3.200000047683716
2022-11-10T02:47:43.000Z,3.200000047683716
2022-11-10T02:47:58.000Z,3.200000047683716
2022-11-10T02:48:13.000Z,3.0
2022-11-10T02:48:28.000Z,3.0
2022-11-10T02:48:43.000Z,3.0
2022-11-10T02:48:58.000Z,3.0
2022-11-10T02:49:13.000Z,3.0
2022-11-10T02:49:28.000Z,3.0
2022-11-10T02:49:44.000Z,2.799999952316284
2022-11-10T02:49:59.000Z,2.799999952316284
2022-11-10T02:50:14.000Z,2.799999952316284
2022-11-10T02:50:29.000Z,2.799999952316284
2022-11-10T02:50:44.000Z,2.700000047683716
2022-11-10T02:50:59.000Z,2.700000047683716
2022-11-10T02:51:14.000Z,2.700000047683716
2022-11-10T02:51:29.000Z,2.700000047683716
2022-11-10T02:51:44.000Z,2.700000047683716
2022-11-10T02:51:58.000Z,2.700000047683716
2022-11-10T02:52:13.000Z,2.700000047683716
2022-11-10T02:52:28.000Z,2.700000047683716
2022-11-10T02:52:43.000Z,2.700000047683716
2022-11-10T02:52:58.000Z,2.700000047683716
2022-11-10T02:53:13.000Z,3.0
2022-11-10T02:53:28.000Z,3.200000047683716
2022-11-10T02:53:43.000Z,2.700000047683716
2022-11-10T02:53:58.000Z,2.700000047683716
2022-11-10T02:54:13.000Z,2.700000047683716
2022-11-10T02:54:28.000Z,2.5
2022-11-10T02:54:43.000Z,2.799999952316284
2022-11-10T02:54:58.000Z,2.5
2022-11-10T02:55:13.000Z,2.5
2022-11-10T02:55:28.000Z,2.5
2022-11-10T02:55:43.000Z,2.299999952316284
2022-11-10T02:55:58.000Z,2.299999952316284
2022-11-10T02:56:13.000Z,2.299999952316284
2022-11-10T02:56:28.000Z,2.200000047683716
2022-11-10T02:56:43.000Z,2.299999952316284
2022-11-10T02:56:58.000Z,2.200000047683716
2022-11-10T02:57:13.000Z,2.200000047683716
2022-11-10T02:57:28.000Z,2.200000047683716
2022-11-10T02:57:43.000Z,2.200000047683716
2022-11-10T02:57:58.000Z,2.200000047683716
2022-11-10T02:58:13.000Z,2.200000047683716
2022-11-10T02:58:28.000Z,2.299999952316284
2022-11-10T02:58:44.000Z,2.299999952316284
2022-11-10T02:58:59.000Z,2.200000047683716
2022-11-10T02:59:14.000Z,2.200000047683716
2022-11-10T02:59:29.000Z,2.200000047683716
2022-11-10T02:59:44.000Z,2.200000047683716
2022-11-10T02:59:59.000Z,2.200000047683716
2022-11-10T03:00:14.000Z,2.0
2022-11-10T03:00:29.000Z,2.0
2022-11-10T03:00:44.000Z,2.0
2022-11-10T03:00:59.000Z,2.0
2022-11-10T03:01:14.000Z,2.0
2022-11-10T03:01:29.000Z,2.0
2022-11-10T03:01:44.000Z,2.0
2022-11-10T03:01:59.000Z,2.0
2022-11-10T03:02:14.000Z,1.7999999523162842
2022-11-10T03:02:29.000Z,1.7999999523162842
2022-11-10T03:02:43.000Z,1.7999999523162842
2022-11-10T03:02:58.000Z,1.600000023841858
2022-11-10T03:03:13.000Z,1.600000023841858
2022-11-10T03:03:28.000Z,1.600000023841858
2022-11-10T03:03:43.000Z,1.600000023841858
2022-11-10T03:03:58.000Z,1.7999999523162842
2022-11-10T03:04:13.000Z,2.0
2022-11-10T03:04:28.000Z,2.0
2022-11-10T03:04:43.000Z,2.0